sensor_id;sensor_type;location;lat;lon;timestamp;P1;durP1;ratioP1;P2;durP2;ratioP2
18200;SDS011;9226;47.858;9.594;2022-08-11T00:01:42;4.60;;;2.40;;
18200;SDS011;9226;47.858;9.594;2022-08-11T00:04:13;5.30;;;2.47;;
18200;SDS011;9226;47.858;9.594;2022-08-11T00:06:40;4.80;;;2.40;;
18200;SDS011;9226;47.858;9.594;2022-08-11T00:09:08;5.80;;;2.60;;
18200;SDS011;9226;47.858;9.594;2022-08-11T00:11:37;6.57;;;2.63;;
18200;SDS011;9226;47.858;9.594;2022-08-11T00:14:16;5.53;;;2.60;;
18200;SDS011;9226;47.858;9.594;2022-08-11T00:16:52;5.83;;;2.30;;
18200;SDS011;9226;47.858;9.594;2022-08-11T00:19:22;6.70;;;2.60;;
18200;SDS011;9226;47.858;9.594;2022-08-11T00:21:50;5.77;;;2.67;;
18200;SDS011;9226;47.858;9.594;2022-08-11T00:24:17;3.17;;;2.40;;
18200;SDS011;9226;47.858;9.594;2022-08-11T00:26:48;5.27;;;2.60;;
18200;SDS011;9226;47.858;9.594;2022-08-11T00:29:16;5.07;;;2.60;;
18200;SDS011;9226;47.858;9.594;2022-08-11T00:31:43;3.60;;;2.60;;
18200;SDS011;9226;47.858;9.594;2022-08-11T00:34:13;7.27;;;3.00;;
18200;SDS011;9226;47.858;9.594;2022-08-11T00:36:51;5.27;;;2.60;;
18200;SDS011;9226;47.858;9.594;2022-08-11T00:39:19;4.40;;;2.73;;
18200;SDS011;9226;47.858;9.594;2022-08-11T00:50:57;5.30;;;2.63;;
18200;SDS011;9226;47.858;9.594;2022-08-11T01:02:17;5.20;;;2.63;;
18200;SDS011;9226;47.858;9.594;2022-08-11T01:05:13;4.43;;;2.80;;
18200;SDS011;9226;47.858;9.594;2022-08-11T01:19:44;4.77;;;2.77;;
18200;SDS011;9226;47.858;9.594;2022-08-11T01:30:48;3.43;;;2.70;;
18200;SDS011;9226;47.858;9.594;2022-08-11T01:45:14;4.40;;;2.83;;
18200;SDS011;9226;47.858;9.594;2022-08-11T01:48:01;4.33;;;3.13;;
18200;SDS011;9226;47.858;9.594;2022-08-11T01:58:48;6.87;;;3.27;;
18200;SDS011;9226;47.858;9.594;2022-08-11T02:11:48;4.30;;;2.93;;
18200;SDS011;9226;47.858;9.594;2022-08-11T02:28:40;4.77;;;3.40;;
18200;SDS011;9226;47.858;9.594;2022-08-11T02:31:26;4.70;;;3.33;;
18200;SDS011;9226;47.858;9.594;2022-08-11T02:47:57;4.43;;;3.20;;
18200;SDS011;9226;47.858;9.594;2022-08-11T02:50:56;5.47;;;3.30;;
18200;SDS011;9226;47.858;9.594;2022-08-11T02:57:16;5.30;;;3.37;;
18200;SDS011;9226;47.858;9.594;2022-08-11T03:02:03;5.30;;;3.67;;
18200;SDS011;9226;47.858;9.594;2022-08-11T03:04:53;5.70;;;3.80;;
18200;SDS011;9226;47.858;9.594;2022-08-11T03:07:45;7.10;;;3.80;;
18200;SDS011;9226;47.858;9.594;2022-08-11T03:10:19;10.07;;;3.90;;
18200;SDS011;9226;47.858;9.594;2022-08-11T03:15:48;7.47;;;3.83;;
18200;SDS011;9226;47.858;9.594;2022-08-11T03:19:17;7.47;;;3.90;;
18200;SDS011;9226;47.858;9.594;2022-08-11T03:28:08;5.80;;;3.80;;
18200;SDS011;9226;47.858;9.594;2022-08-11T03:30:45;5.13;;;3.80;;
18200;SDS011;9226;47.858;9.594;2022-08-11T03:33:27;5.70;;;3.53;;
18200;SDS011;9226;47.858;9.594;2022-08-11T04:07:47;5.73;;;3.77;;
18200;SDS011;9226;47.858;9.594;2022-08-11T04:13:19;5.20;;;3.63;;
18200;SDS011;9226;47.858;9.594;2022-08-11T04:32:41;8.90;;;3.70;;
18200;SDS011;9226;47.858;9.594;2022-08-11T04:38:57;12.73;;;3.93;;
18200;SDS011;9226;47.858;9.594;2022-08-11T04:50:42;7.73;;;3.73;;
18200;SDS011;9226;47.858;9.594;2022-08-11T04:53:47;8.20;;;3.50;;
18200;SDS011;9226;47.858;9.594;2022-08-11T04:56:33;6.90;;;3.60;;
18200;SDS011;9226;47.858;9.594;2022-08-11T05:13:20;5.07;;;3.90;;
18200;SDS011;9226;47.858;9.594;2022-08-11T05:16:10;6.67;;;3.77;;
18200;SDS011;9226;47.858;9.594;2022-08-11T05:18:56;8.73;;;3.90;;
18200;SDS011;9226;47.858;9.594;2022-08-11T05:21:42;5.80;;;4.00;;
18200;SDS011;9226;47.858;9.594;2022-08-11T05:24:36;7.67;;;4.13;;
18200;SDS011;9226;47.858;9.594;2022-08-11T05:27:24;6.97;;;4.00;;
18200;SDS011;9226;47.858;9.594;2022-08-11T05:30:16;12.23;;;4.10;;
18200;SDS011;9226;47.858;9.594;2022-08-11T05:33:05;5.90;;;3.90;;
18200;SDS011;9226;47.858;9.594;2022-08-11T05:36:01;6.50;;;3.70;;
18200;SDS011;9226;47.858;9.594;2022-08-11T05:38:36;5.90;;;3.97;;
18200;SDS011;9226;47.858;9.594;2022-08-11T05:41:23;8.10;;;3.80;;
18200;SDS011;9226;47.858;9.594;2022-08-11T05:44:09;7.47;;;4.20;;
18200;SDS011;9226;47.858;9.594;2022-08-11T05:46:59;5.50;;;4.07;;
18200;SDS011;9226;47.858;9.594;2022-08-11T05:49:47;9.73;;;3.90;;
18200;SDS011;9226;47.858;9.594;2022-08-11T05:52:33;6.53;;;4.20;;
18200;SDS011;9226;47.858;9.594;2022-08-11T05:55:18;4.67;;;3.73;;
18200;SDS011;9226;47.858;9.594;2022-08-11T05:58:03;5.63;;;4.10;;
18200;SDS011;9226;47.858;9.594;2022-08-11T06:00:31;6.43;;;3.70;;
18200;SDS011;9226;47.858;9.594;2022-08-11T06:03:06;5.97;;;4.00;;
18200;SDS011;9226;47.858;9.594;2022-08-11T06:05:38;10.20;;;4.00;;
18200;SDS011;9226;47.858;9.594;2022-08-11T06:08:08;7.07;;;3.67;;
18200;SDS011;9226;47.858;9.594;2022-08-11T06:13:02;5.27;;;3.77;;
18200;SDS011;9226;47.858;9.594;2022-08-11T06:15:32;6.00;;;3.83;;
18200;SDS011;9226;47.858;9.594;2022-08-11T06:18:08;5.60;;;4.20;;
18200;SDS011;9226;47.858;9.594;2022-08-11T06:20:42;8.27;;;4.00;;
18200;SDS011;9226;47.858;9.594;2022-08-11T06:23:10;7.93;;;3.85;;
18200;SDS011;9226;47.858;9.594;2022-08-11T06:25:39;5.53;;;3.88;;
18200;SDS011;9226;47.858;9.594;2022-08-11T06:28:05;7.35;;;3.97;;
18200;SDS011;9226;47.858;9.594;2022-08-11T06:30:33;4.70;;;3.67;;
18200;SDS011;9226;47.858;9.594;2022-08-11T06:32:59;6.68;;;4.03;;
18200;SDS011;9226;47.858;9.594;2022-08-11T06:38:14;6.80;;;3.95;;
18200;SDS011;9226;47.858;9.594;2022-08-11T06:41:01;9.68;;;4.43;;
18200;SDS011;9226;47.858;9.594;2022-08-11T06:43:57;6.80;;;3.33;;
18200;SDS011;9226;47.858;9.594;2022-08-11T06:46:34;5.28;;;4.03;;
18200;SDS011;9226;47.858;9.594;2022-08-11T06:49:02;6.57;;;3.30;;
18200;SDS011;9226;47.858;9.594;2022-08-11T06:51:30;4.18;;;3.67;;
18200;SDS011;9226;47.858;9.594;2022-08-11T06:54:00;7.78;;;3.80;;
18200;SDS011;9226;47.858;9.594;2022-08-11T06:56:30;5.28;;;3.75;;
18200;SDS011;9226;47.858;9.594;2022-08-11T06:59:17;5.47;;;4.13;;
18200;SDS011;9226;47.858;9.594;2022-08-11T07:07:12;5.70;;;3.80;;
18200;SDS011;9226;47.858;9.594;2022-08-11T07:13:26;7.38;;;4.25;;
18200;SDS011;9226;47.858;9.594;2022-08-11T07:16:17;4.95;;;4.00;;
18200;SDS011;9226;47.858;9.594;2022-08-11T07:18:49;6.22;;;3.88;;
18200;SDS011;9226;47.858;9.594;2022-08-11T07:21:34;6.32;;;4.00;;
18200;SDS011;9226;47.858;9.594;2022-08-11T07:24:24;5.03;;;3.65;;
18200;SDS011;9226;47.858;9.594;2022-08-11T07:27:17;5.47;;;3.75;;
18200;SDS011;9226;47.858;9.594;2022-08-11T07:30:04;5.75;;;3.70;;
18200;SDS011;9226;47.858;9.594;2022-08-11T07:32:33;4.55;;;3.80;;
18200;SDS011;9226;47.858;9.594;2022-08-11T07:35:12;9.48;;;4.07;;
18200;SDS011;9226;47.858;9.594;2022-08-11T07:37:46;5.53;;;3.42;;
18200;SDS011;9226;47.858;9.594;2022-08-11T07:40:18;5.50;;;3.85;;
18200;SDS011;9226;47.858;9.594;2022-08-11T07:42:47;7.32;;;3.30;;
18200;SDS011;9226;47.858;9.594;2022-08-11T07:45:13;6.82;;;3.40;;
18200;SDS011;9226;47.858;9.594;2022-08-11T07:47:58;3.63;;;3.13;;
18200;SDS011;9226;47.858;9.594;2022-08-11T07:50:43;7.28;;;3.50;;
18200;SDS011;9226;47.858;9.594;2022-08-11T07:53:28;6.30;;;3.47;;
18200;SDS011;9226;47.858;9.594;2022-08-11T07:55:55;6.40;;;3.60;;
18200;SDS011;9226;47.858;9.594;2022-08-11T07:58:24;4.15;;;3.10;;
18200;SDS011;9226;47.858;9.594;2022-08-11T08:01:10;4.88;;;3.33;;
18200;SDS011;9226;47.858;9.594;2022-08-11T08:03:55;7.55;;;3.65;;
18200;SDS011;9226;47.858;9.594;2022-08-11T08:06:42;3.72;;;3.03;;
18200;SDS011;9226;47.858;9.594;2022-08-11T08:09:27;5.95;;;3.55;;
18200;SDS011;9226;47.858;9.594;2022-08-11T08:12:15;6.90;;;3.80;;
18200;SDS011;9226;47.858;9.594;2022-08-11T08:15:08;4.20;;;3.30;;
18200;SDS011;9226;47.858;9.594;2022-08-11T08:17:56;5.90;;;3.20;;
18200;SDS011;9226;47.858;9.594;2022-08-11T08:20:28;4.53;;;3.25;;
18200;SDS011;9226;47.858;9.594;2022-08-11T08:22:57;4.80;;;3.00;;
18200;SDS011;9226;47.858;9.594;2022-08-11T08:25:25;3.60;;;2.90;;
18200;SDS011;9226;47.858;9.594;2022-08-11T08:27:53;4.97;;;3.58;;
18200;SDS011;9226;47.858;9.594;2022-08-11T08:30:21;5.18;;;3.28;;
18200;SDS011;9226;47.858;9.594;2022-08-11T08:33:07;5.20;;;3.70;;
18200;SDS011;9226;47.858;9.594;2022-08-11T08:35:34;7.10;;;3.10;;
18200;SDS011;9226;47.858;9.594;2022-08-11T08:38:01;4.25;;;3.30;;
18200;SDS011;9226;47.858;9.594;2022-08-11T08:40:27;9.52;;;3.08;;
18200;SDS011;9226;47.858;9.594;2022-08-11T08:43:05;5.85;;;3.22;;
18200;SDS011;9226;47.858;9.594;2022-08-11T08:45:34;7.32;;;3.22;;
18200;SDS011;9226;47.858;9.594;2022-08-11T08:48:06;5.28;;;3.50;;
18200;SDS011;9226;47.858;9.594;2022-08-11T08:50:36;4.45;;;3.30;;
18200;SDS011;9226;47.858;9.594;2022-08-11T08:53:26;5.70;;;3.20;;
18200;SDS011;9226;47.858;9.594;2022-08-11T08:55:57;5.80;;;3.63;;
18200;SDS011;9226;47.858;9.594;2022-08-11T08:58:25;4.10;;;3.05;;
18200;SDS011;9226;47.858;9.594;2022-08-11T09:00:52;5.53;;;3.42;;
18200;SDS011;9226;47.858;9.594;2022-08-11T09:03:19;7.25;;;2.97;;
18200;SDS011;9226;47.858;9.594;2022-08-11T09:05:45;4.78;;;3.08;;
18200;SDS011;9226;47.858;9.594;2022-08-11T09:08:13;5.93;;;3.47;;
18200;SDS011;9226;47.858;9.594;2022-08-11T09:10:46;4.03;;;3.17;;
18200;SDS011;9226;47.858;9.594;2022-08-11T09:13:34;4.82;;;3.15;;
18200;SDS011;9226;47.858;9.594;2022-08-11T09:16:04;5.45;;;3.30;;
18200;SDS011;9226;47.858;9.594;2022-08-11T09:18:31;4.78;;;3.17;;
18200;SDS011;9226;47.858;9.594;2022-08-11T09:20:57;4.05;;;3.15;;
18200;SDS011;9226;47.858;9.594;2022-08-11T09:23:23;4.35;;;3.30;;
18200;SDS011;9226;47.858;9.594;2022-08-11T09:26:08;7.03;;;3.28;;
18200;SDS011;9226;47.858;9.594;2022-08-11T09:28:53;4.47;;;3.40;;
18200;SDS011;9226;47.858;9.594;2022-08-11T09:31:19;4.97;;;3.30;;
18200;SDS011;9226;47.858;9.594;2022-08-11T09:33:47;7.97;;;3.60;;
18200;SDS011;9226;47.858;9.594;2022-08-11T09:36:16;5.68;;;3.75;;
18200;SDS011;9226;47.858;9.594;2022-08-11T09:39:00;5.68;;;3.20;;
18200;SDS011;9226;47.858;9.594;2022-08-11T09:41:47;5.35;;;4.13;;
18200;SDS011;9226;47.858;9.594;2022-08-11T09:44:13;5.30;;;3.42;;
18200;SDS011;9226;47.858;9.594;2022-08-11T09:46:57;6.85;;;3.38;;
18200;SDS011;9226;47.858;9.594;2022-08-11T09:49:24;3.97;;;3.55;;
18200;SDS011;9226;47.858;9.594;2022-08-11T09:51:51;5.63;;;3.47;;
18200;SDS011;9226;47.858;9.594;2022-08-11T09:54:17;5.75;;;3.83;;
18200;SDS011;9226;47.858;9.594;2022-08-11T09:56:59;3.88;;;3.30;;
18200;SDS011;9226;47.858;9.594;2022-08-11T09:59:45;6.45;;;3.45;;
18200;SDS011;9226;47.858;9.594;2022-08-11T10:02:13;5.20;;;3.42;;
18200;SDS011;9226;47.858;9.594;2022-08-11T10:04:53;4.50;;;3.10;;
18200;SDS011;9226;47.858;9.594;2022-08-11T10:07:41;5.07;;;3.35;;
18200;SDS011;9226;47.858;9.594;2022-08-11T10:10:15;8.18;;;3.60;;
18200;SDS011;9226;47.858;9.594;2022-08-11T10:12:47;4.90;;;3.45;;
18200;SDS011;9226;47.858;9.594;2022-08-11T10:15:22;4.78;;;3.40;;
18200;SDS011;9226;47.858;9.594;2022-08-11T10:17:59;6.93;;;3.28;;
18200;SDS011;9226;47.858;9.594;2022-08-11T10:20:56;6.38;;;3.70;;
18200;SDS011;9226;47.858;9.594;2022-08-11T10:23:24;6.93;;;3.17;;
18200;SDS011;9226;47.858;9.594;2022-08-11T10:26:10;5.82;;;3.88;;
18200;SDS011;9226;47.858;9.594;2022-08-11T10:28:55;6.03;;;3.60;;
18200;SDS011;9226;47.858;9.594;2022-08-11T10:31:21;7.72;;;3.60;;
18200;SDS011;9226;47.858;9.594;2022-08-11T10:34:09;3.80;;;3.42;;
18200;SDS011;9226;47.858;9.594;2022-08-11T10:36:39;5.20;;;3.65;;
18200;SDS011;9226;47.858;9.594;2022-08-11T10:39:15;8.95;;;3.55;;
18200;SDS011;9226;47.858;9.594;2022-08-11T10:41:46;5.63;;;3.60;;
18200;SDS011;9226;47.858;9.594;2022-08-11T10:44:36;7.88;;;3.55;;
18200;SDS011;9226;47.858;9.594;2022-08-11T10:47:06;5.68;;;3.45;;
18200;SDS011;9226;47.858;9.594;2022-08-11T10:49:51;3.72;;;3.13;;
18200;SDS011;9226;47.858;9.594;2022-08-11T10:52:36;5.32;;;3.78;;
18200;SDS011;9226;47.858;9.594;2022-08-11T10:55:23;6.82;;;3.47;;
18200;SDS011;9226;47.858;9.594;2022-08-11T10:58:11;9.10;;;3.50;;
18200;SDS011;9226;47.858;9.594;2022-08-11T11:01:01;8.55;;;3.63;;
18200;SDS011;9226;47.858;9.594;2022-08-11T11:03:28;3.85;;;3.35;;
18200;SDS011;9226;47.858;9.594;2022-08-11T11:08:58;4.38;;;3.33;;
18200;SDS011;9226;47.858;9.594;2022-08-11T11:11:41;5.72;;;3.58;;
18200;SDS011;9226;47.858;9.594;2022-08-11T11:14:32;4.55;;;3.45;;
18200;SDS011;9226;47.858;9.594;2022-08-11T11:17:22;5.00;;;3.30;;
18200;SDS011;9226;47.858;9.594;2022-08-11T11:20:16;4.43;;;3.45;;
18200;SDS011;9226;47.858;9.594;2022-08-11T11:22:49;9.02;;;3.80;;
18200;SDS011;9226;47.858;9.594;2022-08-11T11:25:29;7.35;;;3.70;;
18200;SDS011;9226;47.858;9.594;2022-08-11T11:36:47;11.43;;;3.70;;
18200;SDS011;9226;47.858;9.594;2022-08-11T11:39:25;5.28;;;3.70;;
18200;SDS011;9226;47.858;9.594;2022-08-11T11:41:52;6.60;;;3.58;;
18200;SDS011;9226;47.858;9.594;2022-08-11T11:44:20;5.25;;;3.60;;
18200;SDS011;9226;47.858;9.594;2022-08-11T11:46:49;5.55;;;3.78;;
18200;SDS011;9226;47.858;9.594;2022-08-11T11:49:17;6.60;;;3.60;;
18200;SDS011;9226;47.858;9.594;2022-08-11T11:51:48;4.60;;;3.50;;
18200;SDS011;9226;47.858;9.594;2022-08-11T11:54:16;9.68;;;3.60;;
18200;SDS011;9226;47.858;9.594;2022-08-11T11:56:51;8.07;;;3.70;;
18200;SDS011;9226;47.858;9.594;2022-08-11T11:59:22;14.68;;;3.65;;
18200;SDS011;9226;47.858;9.594;2022-08-11T12:02:09;6.93;;;3.78;;
18200;SDS011;9226;47.858;9.594;2022-08-11T12:04:37;5.18;;;3.58;;
18200;SDS011;9226;47.858;9.594;2022-08-11T12:07:14;4.93;;;3.88;;
18200;SDS011;9226;47.858;9.594;2022-08-11T12:10:00;6.05;;;3.25;;
18200;SDS011;9226;47.858;9.594;2022-08-11T12:12:26;10.25;;;4.05;;
18200;SDS011;9226;47.858;9.594;2022-08-11T12:15:10;5.40;;;3.60;;
18200;SDS011;9226;47.858;9.594;2022-08-11T12:17:37;7.70;;;3.45;;
18200;SDS011;9226;47.858;9.594;2022-08-11T12:20:03;4.28;;;3.63;;
18200;SDS011;9226;47.858;9.594;2022-08-11T12:22:30;6.43;;;3.33;;
18200;SDS011;9226;47.858;9.594;2022-08-11T12:25:14;4.25;;;3.30;;
18200;SDS011;9226;47.858;9.594;2022-08-11T12:28:01;5.97;;;3.65;;
18200;SDS011;9226;47.858;9.594;2022-08-11T12:30:28;5.88;;;3.35;;
18200;SDS011;9226;47.858;9.594;2022-08-11T12:32:54;5.35;;;3.72;;
18200;SDS011;9226;47.858;9.594;2022-08-11T12:35:21;4.10;;;3.60;;
18200;SDS011;9226;47.858;9.594;2022-08-11T12:37:48;5.97;;;3.25;;
18200;SDS011;9226;47.858;9.594;2022-08-11T12:40:22;7.03;;;4.10;;
18200;SDS011;9226;47.858;9.594;2022-08-11T12:43:09;4.07;;;3.30;;
18200;SDS011;9226;47.858;9.594;2022-08-11T12:45:59;6.38;;;3.55;;
18200;SDS011;9226;47.858;9.594;2022-08-11T12:48:27;5.57;;;3.95;;
18200;SDS011;9226;47.858;9.594;2022-08-11T12:51:21;4.82;;;3.70;;
18200;SDS011;9226;47.858;9.594;2022-08-11T12:56:47;6.25;;;3.70;;
18200;SDS011;9226;47.858;9.594;2022-08-11T12:59:48;7.37;;;3.57;;
18200;SDS011;9226;47.858;9.594;2022-08-11T13:02:33;7.25;;;3.67;;
18200;SDS011;9226;47.858;9.594;2022-08-11T13:05:19;4.93;;;3.78;;
18200;SDS011;9226;47.858;9.594;2022-08-11T13:07:46;4.40;;;3.35;;
18200;SDS011;9226;47.858;9.594;2022-08-11T13:10:15;4.82;;;3.45;;
18200;SDS011;9226;47.858;9.594;2022-08-11T13:13:01;4.22;;;3.38;;
18200;SDS011;9226;47.858;9.594;2022-08-11T13:15:28;5.07;;;3.75;;
18200;SDS011;9226;47.858;9.594;2022-08-11T13:17:56;5.82;;;3.67;;
18200;SDS011;9226;47.858;9.594;2022-08-11T13:20:24;4.32;;;3.72;;
18200;SDS011;9226;47.858;9.594;2022-08-11T13:22:54;8.23;;;3.53;;
18200;SDS011;9226;47.858;9.594;2022-08-11T13:25:24;5.07;;;3.50;;
18200;SDS011;9226;47.858;9.594;2022-08-11T13:27:54;4.32;;;3.42;;
18200;SDS011;9226;47.858;9.594;2022-08-11T13:30:24;7.20;;;3.60;;
18200;SDS011;9226;47.858;9.594;2022-08-11T13:33:11;4.45;;;3.92;;
18200;SDS011;9226;47.858;9.594;2022-08-11T13:35:38;7.28;;;3.78;;
18200;SDS011;9226;47.858;9.594;2022-08-11T13:38:04;5.40;;;3.70;;
18200;SDS011;9226;47.858;9.594;2022-08-11T13:40:32;3.70;;;3.10;;
18200;SDS011;9226;47.858;9.594;2022-08-11T13:42:58;5.20;;;3.70;;
18200;SDS011;9226;47.858;9.594;2022-08-11T13:45:24;4.03;;;3.20;;
18200;SDS011;9226;47.858;9.594;2022-08-11T13:47:51;7.53;;;3.60;;
18200;SDS011;9226;47.858;9.594;2022-08-11T13:50:20;4.63;;;3.50;;
18200;SDS011;9226;47.858;9.594;2022-08-11T13:53:07;8.77;;;3.53;;
18200;SDS011;9226;47.858;9.594;2022-08-11T13:55:34;6.83;;;4.00;;
18200;SDS011;9226;47.858;9.594;2022-08-11T13:58:00;5.68;;;3.42;;
18200;SDS011;9226;47.858;9.594;2022-08-11T14:00:25;8.77;;;3.73;;
18200;SDS011;9226;47.858;9.594;2022-08-11T14:02:55;8.35;;;3.78;;
18200;SDS011;9226;47.858;9.594;2022-08-11T14:05:25;6.97;;;3.40;;
18200;SDS011;9226;47.858;9.594;2022-08-11T14:08:04;4.82;;;3.13;;
18200;SDS011;9226;47.858;9.594;2022-08-11T14:10:33;3.92;;;3.30;;
18200;SDS011;9226;47.858;9.594;2022-08-11T14:13:06;9.45;;;3.13;;
18200;SDS011;9226;47.858;9.594;2022-08-11T14:15:52;4.53;;;3.58;;
18200;SDS011;9226;47.858;9.594;2022-08-11T14:18:27;6.10;;;3.80;;
18200;SDS011;9226;47.858;9.594;2022-08-11T14:20:55;4.60;;;3.28;;
18200;SDS011;9226;47.858;9.594;2022-08-11T14:23:43;4.18;;;3.60;;
18200;SDS011;9226;47.858;9.594;2022-08-11T14:26:11;4.57;;;3.88;;
18200;SDS011;9226;47.858;9.594;2022-08-11T14:34:19;4.88;;;3.65;;
18200;SDS011;9226;47.858;9.594;2022-08-11T14:36:57;4.85;;;3.47;;
18200;SDS011;9226;47.858;9.594;2022-08-11T14:39:30;3.88;;;3.15;;
18200;SDS011;9226;47.858;9.594;2022-08-11T14:42:03;4.53;;;3.55;;
18200;SDS011;9226;47.858;9.594;2022-08-11T14:44:50;4.70;;;3.45;;
18200;SDS011;9226;47.858;9.594;2022-08-11T14:47:47;5.32;;;3.70;;
18200;SDS011;9226;47.858;9.594;2022-08-11T14:50:22;5.00;;;3.42;;
18200;SDS011;9226;47.858;9.594;2022-08-11T14:52:57;3.85;;;3.45;;
18200;SDS011;9226;47.858;9.594;2022-08-11T14:55:29;7.53;;;3.70;;
18200;SDS011;9226;47.858;9.594;2022-08-11T14:58:18;6.97;;;3.40;;
18200;SDS011;9226;47.858;9.594;2022-08-11T15:00:48;4.40;;;3.25;;
18200;SDS011;9226;47.858;9.594;2022-08-11T15:03:16;5.07;;;3.58;;
18200;SDS011;9226;47.858;9.594;2022-08-11T15:05:50;5.05;;;3.40;;
18200;SDS011;9226;47.858;9.594;2022-08-11T15:08:18;6.30;;;3.50;;
18200;SDS011;9226;47.858;9.594;2022-08-11T15:11:05;8.98;;;3.60;;
18200;SDS011;9226;47.858;9.594;2022-08-11T15:13:51;11.18;;;3.30;;
18200;SDS011;9226;47.858;9.594;2022-08-11T15:16:16;5.80;;;3.25;;
18200;SDS011;9226;47.858;9.594;2022-08-11T15:19:01;10.88;;;3.28;;
18200;SDS011;9226;47.858;9.594;2022-08-11T15:21:27;7.40;;;3.60;;
18200;SDS011;9226;47.858;9.594;2022-08-11T15:24:11;4.82;;;3.30;;
18200;SDS011;9226;47.858;9.594;2022-08-11T15:26:45;10.23;;;3.50;;
18200;SDS011;9226;47.858;9.594;2022-08-11T15:29:31;6.72;;;3.45;;
18200;SDS011;9226;47.858;9.594;2022-08-11T15:32:20;8.25;;;3.70;;
18200;SDS011;9226;47.858;9.594;2022-08-11T15:34:55;6.97;;;3.63;;
18200;SDS011;9226;47.858;9.594;2022-08-11T15:37:44;8.07;;;3.70;;
18200;SDS011;9226;47.858;9.594;2022-08-11T15:40:18;6.20;;;3.30;;
18200;SDS011;9226;47.858;9.594;2022-08-11T15:51:39;4.45;;;3.30;;
18200;SDS011;9226;47.858;9.594;2022-08-11T15:54:19;6.13;;;3.57;;
18200;SDS011;9226;47.858;9.594;2022-08-11T15:56:49;4.50;;;3.50;;
18200;SDS011;9226;47.858;9.594;2022-08-11T15:59:19;11.73;;;3.70;;
18200;SDS011;9226;47.858;9.594;2022-08-11T16:02:05;5.03;;;3.37;;
18200;SDS011;9226;47.858;9.594;2022-08-11T16:04:52;4.83;;;3.60;;
18200;SDS011;9226;47.858;9.594;2022-08-11T16:07:20;5.97;;;3.30;;
18200;SDS011;9226;47.858;9.594;2022-08-11T16:12:56;5.03;;;3.40;;
18200;SDS011;9226;47.858;9.594;2022-08-11T16:15:55;5.33;;;3.70;;
18200;SDS011;9226;47.858;9.594;2022-08-11T16:18:41;4.73;;;3.50;;
18200;SDS011;9226;47.858;9.594;2022-08-11T16:21:13;4.37;;;3.37;;
18200;SDS011;9226;47.858;9.594;2022-08-11T16:23:42;8.43;;;3.67;;
18200;SDS011;9226;47.858;9.594;2022-08-11T16:26:09;5.43;;;3.73;;
18200;SDS011;9226;47.858;9.594;2022-08-11T16:28:36;7.57;;;4.07;;
18200;SDS011;9226;47.858;9.594;2022-08-11T16:31:04;5.70;;;3.73;;
18200;SDS011;9226;47.858;9.594;2022-08-11T16:33:35;4.40;;;3.40;;
18200;SDS011;9226;47.858;9.594;2022-08-11T16:36:05;7.57;;;3.83;;
18200;SDS011;9226;47.858;9.594;2022-08-11T16:38:51;4.57;;;3.47;;
18200;SDS011;9226;47.858;9.594;2022-08-11T16:41:19;7.00;;;3.70;;
18200;SDS011;9226;47.858;9.594;2022-08-11T16:44:06;5.00;;;3.60;;
18200;SDS011;9226;47.858;9.594;2022-08-11T16:46:52;8.00;;;4.00;;
18200;SDS011;9226;47.858;9.594;2022-08-11T16:49:25;11.37;;;4.07;;
18200;SDS011;9226;47.858;9.594;2022-08-11T16:51:55;4.00;;;3.50;;
18200;SDS011;9226;47.858;9.594;2022-08-11T16:54:21;5.77;;;4.00;;
18200;SDS011;9226;47.858;9.594;2022-08-11T16:56:51;5.00;;;4.00;;
18200;SDS011;9226;47.858;9.594;2022-08-11T16:59:31;4.83;;;3.67;;
18200;SDS011;9226;47.858;9.594;2022-08-11T17:02:06;7.67;;;4.07;;
18200;SDS011;9226;47.858;9.594;2022-08-11T17:04:46;4.97;;;3.90;;
18200;SDS011;9226;47.858;9.594;2022-08-11T17:07:37;9.03;;;3.50;;
18200;SDS011;9226;47.858;9.594;2022-08-11T17:10:27;4.83;;;3.37;;
18200;SDS011;9226;47.858;9.594;2022-08-11T17:13:16;7.70;;;3.40;;
18200;SDS011;9226;47.858;9.594;2022-08-11T17:15:52;6.73;;;3.63;;
18200;SDS011;9226;47.858;9.594;2022-08-11T17:18:32;4.03;;;3.40;;
18200;SDS011;9226;47.858;9.594;2022-08-11T17:21:04;6.30;;;3.23;;
18200;SDS011;9226;47.858;9.594;2022-08-11T17:23:32;7.97;;;3.83;;
18200;SDS011;9226;47.858;9.594;2022-08-11T17:27:02;5.50;;;3.63;;
18200;SDS011;9226;47.858;9.594;2022-08-11T17:29:22;4.17;;;3.40;;
18200;SDS011;9226;47.858;9.594;2022-08-11T17:31:50;5.00;;;3.23;;
18200;SDS011;9226;47.858;9.594;2022-08-11T17:34:36;8.93;;;3.77;;
18200;SDS011;9226;47.858;9.594;2022-08-11T17:37:25;6.33;;;3.20;;
18200;SDS011;9226;47.858;9.594;2022-08-11T17:39:52;5.87;;;3.37;;
18200;SDS011;9226;47.858;9.594;2022-08-11T17:42:20;4.33;;;3.30;;
18200;SDS011;9226;47.858;9.594;2022-08-11T17:45:06;5.27;;;3.43;;
18200;SDS011;9226;47.858;9.594;2022-08-11T17:47:52;6.53;;;3.50;;
18200;SDS011;9226;47.858;9.594;2022-08-11T17:50:38;5.70;;;3.43;;
18200;SDS011;9226;47.858;9.594;2022-08-11T17:53:06;5.03;;;3.63;;
18200;SDS011;9226;47.858;9.594;2022-08-11T17:55:50;4.70;;;3.17;;
18200;SDS011;9226;47.858;9.594;2022-08-11T17:58:37;4.23;;;3.20;;
18200;SDS011;9226;47.858;9.594;2022-08-11T18:01:23;5.47;;;3.90;;
18200;SDS011;9226;47.858;9.594;2022-08-11T18:03:50;5.10;;;3.60;;
18200;SDS011;9226;47.858;9.594;2022-08-11T18:06:18;5.20;;;3.17;;
18200;SDS011;9226;47.858;9.594;2022-08-11T18:08:46;3.57;;;3.00;;
18200;SDS011;9226;47.858;9.594;2022-08-11T18:11:32;4.60;;;3.33;;
18200;SDS011;9226;47.858;9.594;2022-08-11T18:14:17;6.27;;;3.07;;
18200;SDS011;9226;47.858;9.594;2022-08-11T18:17:03;6.97;;;3.50;;
18200;SDS011;9226;47.858;9.594;2022-08-11T18:19:47;5.10;;;3.57;;
18200;SDS011;9226;47.858;9.594;2022-08-11T18:22:37;3.80;;;3.20;;
18200;SDS011;9226;47.858;9.594;2022-08-11T18:25:26;4.47;;;3.50;;
18200;SDS011;9226;47.858;9.594;2022-08-11T18:28:26;4.77;;;2.87;;
18200;SDS011;9226;47.858;9.594;2022-08-11T18:31:15;4.83;;;3.10;;
18200;SDS011;9226;47.858;9.594;2022-08-11T18:34:02;4.77;;;3.20;;
18200;SDS011;9226;47.858;9.594;2022-08-11T18:39:48;4.83;;;2.90;;
18200;SDS011;9226;47.858;9.594;2022-08-11T18:42:38;4.53;;;3.07;;
18200;SDS011;9226;47.858;9.594;2022-08-11T18:45:25;10.47;;;2.90;;
18200;SDS011;9226;47.858;9.594;2022-08-11T18:48:11;4.47;;;3.23;;
18200;SDS011;9226;47.858;9.594;2022-08-11T18:50:59;4.30;;;2.93;;
18200;SDS011;9226;47.858;9.594;2022-08-11T18:53:52;4.73;;;2.73;;
18200;SDS011;9226;47.858;9.594;2022-08-11T18:56:41;8.33;;;3.23;;
18200;SDS011;9226;47.858;9.594;2022-08-11T18:59:28;5.07;;;2.87;;
18200;SDS011;9226;47.858;9.594;2022-08-11T19:02:18;3.17;;;2.83;;
18200;SDS011;9226;47.858;9.594;2022-08-11T19:05:06;6.73;;;2.97;;
18200;SDS011;9226;47.858;9.594;2022-08-11T19:07:53;6.93;;;3.13;;
18200;SDS011;9226;47.858;9.594;2022-08-11T19:10:41;4.60;;;3.20;;
18200;SDS011;9226;47.858;9.594;2022-08-11T19:13:27;3.13;;;2.60;;
18200;SDS011;9226;47.858;9.594;2022-08-11T19:16:14;7.37;;;2.87;;
18200;SDS011;9226;47.858;9.594;2022-08-11T19:19:00;4.23;;;2.90;;
18200;SDS011;9226;47.858;9.594;2022-08-11T19:21:46;4.40;;;2.90;;
18200;SDS011;9226;47.858;9.594;2022-08-11T19:24:33;10.80;;;3.40;;
18200;SDS011;9226;47.858;9.594;2022-08-11T19:27:20;5.07;;;3.17;;
18200;SDS011;9226;47.858;9.594;2022-08-11T19:30:07;4.47;;;3.23;;
18200;SDS011;9226;47.858;9.594;2022-08-11T19:32:52;5.97;;;3.27;;
18200;SDS011;9226;47.858;9.594;2022-08-11T19:35:37;11.43;;;3.20;;
18200;SDS011;9226;47.858;9.594;2022-08-11T19:38:23;4.23;;;2.90;;
18200;SDS011;9226;47.858;9.594;2022-08-11T19:41:08;4.60;;;2.93;;
18200;SDS011;9226;47.858;9.594;2022-08-11T19:43:53;3.47;;;2.80;;
18200;SDS011;9226;47.858;9.594;2022-08-11T19:46:37;5.50;;;2.90;;
18200;SDS011;9226;47.858;9.594;2022-08-11T19:49:22;4.10;;;2.80;;
18200;SDS011;9226;47.858;9.594;2022-08-11T19:52:07;5.07;;;2.97;;
18200;SDS011;9226;47.858;9.594;2022-08-11T19:54:52;5.23;;;2.77;;
18200;SDS011;9226;47.858;9.594;2022-08-11T19:57:37;3.53;;;2.63;;
18200;SDS011;9226;47.858;9.594;2022-08-11T20:00:22;4.63;;;2.80;;
18200;SDS011;9226;47.858;9.594;2022-08-11T20:03:08;3.87;;;2.87;;
18200;SDS011;9226;47.858;9.594;2022-08-11T20:05:54;5.37;;;2.77;;